Sign up for FREE California Case Law Newsletters

Search Title or Docket Number:


FindLaw : FindLaw California : JudicialOpinions and Case Law : Slip Opinions : November 1998

CALIFORNIA SUPREME COURT

POSTED DATE CASE NAME - FILDED DATE
Nov 30 1998 P. v. Massie 11/30/98 SC S010775.PDF - S010775.DOC
Nov 23 1998 Wiley v. San Diego Co. 11/23/98 SC S066034.PDF - S066034.DOC
Nov 12 1998 P. v. Roybal 11/12/98 SC S029453.PDF - S029453.DOC
Nov 09 1998 Mercury Ins. v. Sup. Ct. 11/9/98 SC S067462.PDF - S067462.DOC
Nov 09 1998 McKeon v. Mercy Healthcare 11/9/98 SC S054783.PDF - S054783.DOC
Nov 05 1998 P. v. Davis 11/5/98 SC S062739.PDF - S062739.DOC
Nov 05 1998 P. v. Ochoa 11/5/98 SC S009522.PDF - S009522.DOC
Nov 02 1998 P. v. Lopez 11/2/98 SC S064118.PDF - S064118.DOC
Nov 02 1998 Khawar v. Globe International 11/2/98 SC S054868.PDF - S054868.DOC

FIRST APPELLATE DISTRICT

POSTED DATE CASE NAME - FILDED DATE
Nov 30 1998 Tusher v. Gabrielsen 11/30/98 CA1/3 A077708.PDF - A077708.DOC
Nov 30 1998 Marcus & Millichap v. Hock etc. Co. 11/30/98 CA1/3 A078977.PDF - A078977.DOC
Nov 30 1998 Kreeft v. Oakland 11/30/98 CA1/3 A079920.PDF - A079920.DOC
Nov 24 1998 Empire Waste v. Town of Windsor 11/24/98 CA1/4 A079840M.PDF - A079840M.DOC
Nov 24 1998 Conservatorship of Coombs 11/24/98 CA1/5 A083160.PDF - A083160.DOC
Nov 23 1998 Braun v. Bureau of State Audits 11/23/98 CA1/4 A075423.PDF - A075423.DOC
Nov 23 1998 So. San Francisco v. Mayer 10/27/98 CA1/2 A081531.PDF - A081531.DOC
Nov 17 1998 Public Access v. S.F. Public Lib. 11/17/98 CA1/2 A081426.PDF - A081426.DOC
Nov 17 1998 P. v. Martinez 11/17/98 CA1/2 A081294M.PDF - A081294M.DOC
Nov 16 1998 Etter v. Veriflo Corp. 11/16/98 CA1/1 A077997M.PDF - A077997M.DOC
Nov 16 1998 Anti-Defamation League v. Sup. Ct. 11/16/98 CA1/2 A080694.PDF - A080694.DOC
Nov 13 1998 Alternative Systems v. Carey 11/13/98 CA1/4 A079747.PDF - A079747.DOC
Nov 10 1998 P. v. Denison 11/10/98 CA1/2 A077542.PDF - A077542.DOC
Nov 10 1998 P. v. Martinez 10/19/98 CA1/2 A081294.PDF - A081294.DOC
Nov 10 1998 Syntex v. Lowsley-Williams 11/10/98 CA1/3 A076964.PDF - A076964.DOC
Nov 03 1998 Badie v. Bank of America 11/3/98 CA1/3 A068753.PDF - A068753.DOC

SECOND APPELLATE DISTRICT

POSTED DATE CASE NAME - FILDED DATE
Nov 30 1998 Brown v. Compton Sch. Dist. 11/30/98 CA2/4 B113174.PDF - B113174.DOC
Nov 30 1998 Sanchez v. BallyĂs etc. 11/30/98 CA2/4 B116567.PDF - B116567.DOC
Nov 25 1998 P. v. Camacho 11/25/98 CA2/6 B118008.PDF - B118008.DOC
Nov 25 1998 Jackson v. Paramount 10/28/98 CA2/4 B114354.PDF - B114354.DOC
Nov 25 1998 Canon v. Sup. Ct. 11/25/98 CA2/2 B121005.PDF - B121005.DOC
Nov 24 1998 Robert T. v. Super. Ct. 11/24/98 CA2/7 B124710A.PDF - B124710A.DOC
Nov 24 1998 Arthur Andersen LLP v. Super. Ct. 11/24/98 CA2/2 B118547.PDF - B118547.DOC
Nov 24 1998 Cilderman v. City of Los Angeles 11/24/98 CA2/4 B118436.PDF - B118436.DOC
Nov 24 1998 Alszeh v. Home Box Office 11/24/98 CA2/4 B115437.PDF - B115437.DOC
Nov 24 1998 Turner v. Super. Ct. 11/24/98 CA2/1 B121570.PDF - B121570.DOC
Nov 24 1998 P. v. Garrett 11/24/98 CA2/5 B117589.PDF - B117589.DOC
Nov 24 1998 P. v. Thomas 11/24/98 CA2/3 B115359M.PDF - B115359M.DOC
Nov 24 1998 P. v. Sanders 11/24/98 CA2/3 B102795.PDF - B102795.DOC
Nov 23 1998 P. v. Montes 11/23/98 CA2/4 B117195.PDF - B117195.DOC
Nov 23 1998 Elvis P. v. Sup. Ct. 11/23/98 CA2/4 B124599.PDF - B124599.DOC
Nov 23 1998 L&B Real Estate v. Sup. Ct. 11/23/98 CA2/2 B121437.PDF - B121437.DOC
Nov 23 1998 Kelly v. Vons Companies 11/23/98 CA2/6 B110631.PDF - B110631.DOC
Nov 20 1998 Clauson v. Sup. Ct. 11/20/98 CA2/5 B122521.PDF - B122521.DOC
Nov 20 1998 P. v. Turner 11/20/98 CA2/4 B116907.PDF - B116907.DOC
Nov 20 1998 Siegel v. Prudential 11/20/98 CA2/5 B115350.PDF - B115350.DOC
Nov 19 1998 Rochin v. Pat Johnson 11/19/98 CA2/4 B114612.PDF - B114612.DOC
Nov 18 1998 Goodson v. Perfect Fit 11/18/98 CA2/2 B119221M.PDF - B119221M.DOC
Nov 18 1998 Karen Kane, Inc. v. Bank of America 11/18/98 CA2/5 B113910.PDF - B113910.DOC
Nov 18 1998 Wager v. Mirzayance 11/18/98 CA2/5 B120650.PDF - B120650.DOC
Nov 16 1998 Major Clients Agency v. Diemer 11/16/98 CA2/1 B106486.PDF - B106486.DOC
Nov 16 1998 Aguirre-Alvarez v. Regents 11/16/98 CA2/2 B116305.PDF - B116305.DOC
Nov 13 1998 Lo v. LA Super. Ct. 11/13/98 CA2/1 B124427.PDF - B124427.DOC
Nov 13 1998 P. v. Maguire 11/13/98 CA2/3 B108722.PDF - B108722.DOC
Nov 12 1998 P. v. Parker 11/12/98 CA2/7 B119466A.PDF - B119466A.DOC
Nov 12 1998 Cloud v. Northrup Grumman 11/12/98 CA2/2 B117044.PDF - B117044.DOC
Nov 12 1998 Martell v. Antelope Med. Ctr. 11/12/98 CA2/5 B119152.PDF - B119152.DOC
Nov 12 1998 P. v. Herrera 11/12/98 CA2/5 B118491.PDF - B118491.DOC
Nov 09 1998 Neel v. WCAB 11/9/98 CA2/6 B121370.PDF - B121370.DOC
Nov 04 1998 Peters v. FiremenĂs Ins. Co. 10/6/98 CA2/2 B119313.PDF - B119313.DOC
Nov 03 1998 Rojas v. Cutsforth 11/3/98 CA2/6 B119159.PDF - B119159.DOC

THIRD APPELLATE DISTRICT

POSTED DATE CASE NAME - FILDED DATE
Nov 30 1998 Serafini v. Sup. Ct. 11/30/98 CA3 C029422.PDF - C029422.DOC
Nov 23 1998 P. v. Tran 11/23/98 CA3 C026890.PDF - C026890.DOC
Nov 23 1998 Haywood v. ARFPD 11/20/98 CA3 C023763.PDF - C023763.DOC
Nov 23 1998 P. v. Murphy 11/20/98 CA3 C025452N.PDF - C025452N.DOC
Nov 18 1998 P. v. Murphy 10/27/98 CA3 C025452.PDF - C025452.DOC
Nov 10 1998 P. v. Lunsford 11/9/98 CA3 C026234.PDF - C026234.DOC

FOURTH APPELLATE DISTRICT

POSTED DATE CASE NAME - FILDED DATE
Nov 30 1998 Saks v. Parilla etc. 11/30/98 CA4/3 G018204M.PDF - G018204M.DOC
Nov 30 1998 Schreiber v. Estate of Kiser 11/30/98 CA4/3 G018084.PDF - G018084.DOC
Nov 30 1998 Hollaway v. Edwards 11/30/98 CA4/3 G019461.PDF - G019461.DOC
Nov 25 1998 Crouse v. Brobeck etc. 11/25/98 CA4/1 D025143.PDF - D025143.DOC
Nov 24 1998 Shawn S. v. Super. Ct. 11/24/98 CA4/1 D031671.PDF - D031671.DOC
Nov 23 1998 Van Dyke v. S.K.I. Ltd. 11/23/98 CA4/3 G021475.PDF - G021475.DOC
Nov 19 1998 P. v. Nguyen 11/19/98 CA4/3 G020280.PDF - G020280.DOC
Nov 19 1998 SBPEA v. Fontana 11/16/98 CA4/2 E021207.PDF - E021207.DOC
Nov 18 1998 Lambert v. General Motors 11/18/98 CA4/2 E018260.PDF - E018260.DOC
Nov 17 1998 Sherman v. Kinetic Concepts 11/17/98 CA4/3 G018314.PDF - G018314.DOC
Nov 16 1998 P. v. $241,600 11/16/98 CA4/2 E017825.PDF - E017825.DOC
Nov 12 1998 P. v. Mays 10/16/98 CA4/1 D028210.PDF - D028210.DOC
Nov 10 1998 Guardianship of Simpson 11/10/98 CA4/3 G021264.PDF - G021264.DOC
Nov 09 1998 Abbott v. Taz Express 11/9/98 CA4/3 G018400.PDF - G018400.DOC
Nov 09 1998 In re Garcia 11/9/98 CA4/1 D030508.PDF - D030508.DOC
Nov 06 1998 P. v. White 11/6/98 CA4/1 D028205.PDF - D028205.DOC
Nov 04 1998 Rosas v. Dishong 11/4/98 CA4/1 D025958.PDF - D025958.DOC
Nov 02 1998 Losornio v. Motta 11/2/98 CA4/1 D031345N.PDF - D031345N.DOC
Nov 02 1998 Travelers etc. v. Redlands Redev. Agency 10/19/98 CA4/2 E020531.PDF - E020531.DOC

SIXTH APPELLATE DISTRICT

POSTED DATE CASE NAME - FILDED DATE
Nov 30 1998 Cabesuela v. Browning-Ferris 10/27/98 CA6 H017364.PDF - H017364.DOC
Nov 16 1998 San Jose v. Sup. Ct. 11/16/98 CA6 H018225.PDF - H018225.DOC
Nov 10 1998 Rosenberg v. Sup. Ct. 11/10/98 CA6 H018043.PDF - H018043.DOC
Nov 06 1998 P. v. Whitworth 11/4/98 CA6 H017022M.PDF - H017022M.DOC

FindLaw Career Center

    Search for Law Jobs:

      Post a Job  |  View More Jobs
Ads by FindLaw